sensor_id;sensor_type;location;lat;lon;timestamp;pressure;altitude;pressure_sealevel;temperature;humidity
60258;BME280;46115;44.484;11.314;2023-08-07T00:03:38;99618.13;;;20.58;75.07
60258;BME280;46115;44.484;11.314;2023-08-07T00:07:40;99630.56;;;21.35;72.34
60258;BME280;46115;44.484;11.314;2023-08-07T00:11:43;99633.38;;;20.83;74.88
60258;BME280;46115;44.484;11.314;2023-08-07T00:15:46;99628.88;;;20.92;74.63
60258;BME280;46115;44.484;11.314;2023-08-07T00:19:49;99631.56;;;20.92;74.96
60258;BME280;46115;44.484;11.314;2023-08-07T00:23:51;99628.28;;;20.80;76.02
60258;BME280;46115;44.484;11.314;2023-08-07T00:27:55;99637.34;;;20.79;76.83
60258;BME280;46115;44.484;11.314;2023-08-07T00:31:59;99643.00;;;21.02;75.87
60258;BME280;46115;44.484;11.314;2023-08-07T00:36:02;99652.22;;;21.00;76.33
60258;BME280;46115;44.484;11.314;2023-08-07T00:40:06;99650.38;;;20.92;76.20
60258;BME280;46115;44.484;11.314;2023-08-07T00:44:08;99644.19;;;21.08;75.22
60258;BME280;46115;44.484;11.314;2023-08-07T00:48:13;99647.66;;;20.84;76.13
60258;BME280;46115;44.484;11.314;2023-08-07T00:52:17;99646.38;;;20.70;76.63
60258;BME280;46115;44.484;11.314;2023-08-07T00:56:20;99645.75;;;20.76;76.39
60258;BME280;46115;44.484;11.314;2023-08-07T01:00:22;99644.38;;;20.46;77.06
60258;BME280;46115;44.484;11.314;2023-08-07T01:04:27;99645.78;;;20.33;78.20
60258;BME280;46115;44.484;11.314;2023-08-07T01:08:30;99644.06;;;20.23;78.99
60258;BME280;46115;44.484;11.314;2023-08-07T01:12:37;99652.75;;;20.43;77.91
60258;BME280;46115;44.484;11.314;2023-08-07T01:16:48;99660.06;;;20.51;77.40
60258;BME280;46115;44.484;11.314;2023-08-07T01:20:54;99671.94;;;20.48;77.08
60258;BME280;46115;44.484;11.314;2023-08-07T01:24:58;99675.56;;;20.65;75.27
60258;BME280;46115;44.484;11.314;2023-08-07T01:29:05;99676.75;;;20.71;74.20
60258;BME280;46115;44.484;11.314;2023-08-07T01:33:17;99685.00;;;20.08;77.93
60258;BME280;46115;44.484;11.314;2023-08-07T01:37:25;99692.56;;;20.30;76.66
60258;BME280;46115;44.484;11.314;2023-08-07T01:41:33;99690.78;;;20.39;76.53
60258;BME280;46115;44.484;11.314;2023-08-07T01:45:37;99697.97;;;19.94;78.11
60258;BME280;46115;44.484;11.314;2023-08-07T01:49:40;99696.72;;;20.42;76.50
60258;BME280;46115;44.484;11.314;2023-08-07T01:53:42;99706.28;;;20.45;75.86
60258;BME280;46115;44.484;11.314;2023-08-07T01:57:46;99715.44;;;20.16;78.06
60258;BME280;46115;44.484;11.314;2023-08-07T02:01:48;99688.19;;;20.29;76.28
60258;BME280;46115;44.484;11.314;2023-08-07T02:05:51;99720.25;;;20.74;75.33
60258;BME280;46115;44.484;11.314;2023-08-07T02:09:54;99723.63;;;19.97;78.95
60258;BME280;46115;44.484;11.314;2023-08-07T02:13:57;99722.41;;;20.27;77.99
60258;BME280;46115;44.484;11.314;2023-08-07T02:18:00;99726.16;;;20.52;77.01
60258;BME280;46115;44.484;11.314;2023-08-07T02:22:03;99716.81;;;20.20;78.08
60258;BME280;46115;44.484;11.314;2023-08-07T02:26:06;99718.50;;;20.21;77.97
60258;BME280;46115;44.484;11.314;2023-08-07T02:30:10;99715.75;;;20.49;76.68
60258;BME280;46115;44.484;11.314;2023-08-07T02:34:12;99716.50;;;20.23;78.38
60258;BME280;46115;44.484;11.314;2023-08-07T02:38:15;99712.94;;;20.59;76.35
60258;BME280;46115;44.484;11.314;2023-08-07T02:42:17;99714.81;;;20.05;78.93
60258;BME280;46115;44.484;11.314;2023-08-07T02:46:21;99717.22;;;19.35;83.44
60258;BME280;46115;44.484;11.314;2023-08-07T02:50:24;99723.06;;;19.76;81.28
60258;BME280;46115;44.484;11.314;2023-08-07T02:54:28;99716.59;;;19.96;80.63
60258;BME280;46115;44.484;11.314;2023-08-07T02:58:31;99723.50;;;20.16;80.49
60258;BME280;46115;44.484;11.314;2023-08-07T03:02:35;99715.53;;;19.89;80.55
60258;BME280;46115;44.484;11.314;2023-08-07T03:06:37;99710.16;;;19.89;80.95
60258;BME280;46115;44.484;11.314;2023-08-07T03:10:40;99717.72;;;20.11;79.29
60258;BME280;46115;44.484;11.314;2023-08-07T03:14:42;99715.13;;;20.02;79.63
60258;BME280;46115;44.484;11.314;2023-08-07T03:18:46;99712.50;;;20.10;78.75
60258;BME280;46115;44.484;11.314;2023-08-07T03:22:49;99714.75;;;19.51;81.98
60258;BME280;46115;44.484;11.314;2023-08-07T03:26:51;99725.75;;;19.76;81.45
60258;BME280;46115;44.484;11.314;2023-08-07T03:30:54;99722.63;;;19.62;82.31
60258;BME280;46115;44.484;11.314;2023-08-07T03:34:58;99729.47;;;19.47;82.30
60258;BME280;46115;44.484;11.314;2023-08-07T03:39:02;99735.31;;;19.60;81.90
60258;BME280;46115;44.484;11.314;2023-08-07T03:43:04;99744.66;;;19.56;82.00
60258;BME280;46115;44.484;11.314;2023-08-07T03:47:07;99746.72;;;19.35;82.87
60258;BME280;46115;44.484;11.314;2023-08-07T03:51:11;99756.94;;;19.59;82.02
60258;BME280;46115;44.484;11.314;2023-08-07T03:55:19;99739.88;;;19.23;83.17
60258;BME280;46115;44.484;11.314;2023-08-07T03:59:22;99759.06;;;19.55;81.56
60258;BME280;46115;44.484;11.314;2023-08-07T04:03:25;99767.53;;;19.41;82.35
60258;BME280;46115;44.484;11.314;2023-08-07T04:07:30;99771.63;;;19.18;82.43
60258;BME280;46115;44.484;11.314;2023-08-07T04:11:32;99773.41;;;18.70;83.23
60258;BME280;46115;44.484;11.314;2023-08-07T04:15:35;99782.75;;;18.47;82.91
60258;BME280;46115;44.484;11.314;2023-08-07T04:19:37;99777.81;;;18.62;81.57
60258;BME280;46115;44.484;11.314;2023-08-07T04:23:41;99773.44;;;18.51;82.03
60258;BME280;46115;44.484;11.314;2023-08-07T04:27:43;99771.19;;;18.66;80.98
60258;BME280;46115;44.484;11.314;2023-08-07T04:31:46;99778.50;;;18.54;80.45
60258;BME280;46115;44.484;11.314;2023-08-07T04:35:48;99776.38;;;18.58;79.85
60258;BME280;46115;44.484;11.314;2023-08-07T04:39:52;99769.66;;;18.44;80.22
60258;BME280;46115;44.484;11.314;2023-08-07T04:43:55;99762.72;;;18.61;79.54
60258;BME280;46115;44.484;11.314;2023-08-07T04:47:58;99765.38;;;18.70;78.79
60258;BME280;46115;44.484;11.314;2023-08-07T04:52:00;99774.97;;;18.73;78.77
60258;BME280;46115;44.484;11.314;2023-08-07T04:56:04;99772.81;;;18.96;77.29
60258;BME280;46115;44.484;11.314;2023-08-07T05:00:08;99776.09;;;18.80;76.71
60258;BME280;46115;44.484;11.314;2023-08-07T05:04:10;99780.66;;;19.07;74.02
60258;BME280;46115;44.484;11.314;2023-08-07T05:08:13;99783.75;;;19.49;72.70
60258;BME280;46115;44.484;11.314;2023-08-07T05:12:17;99786.50;;;19.30;72.19
60258;BME280;46115;44.484;11.314;2023-08-07T05:16:19;99791.81;;;19.77;70.62
60258;BME280;46115;44.484;11.314;2023-08-07T05:20:22;99788.25;;;19.86;66.76
60258;BME280;46115;44.484;11.314;2023-08-07T05:24:24;99790.88;;;20.13;67.85
60258;BME280;46115;44.484;11.314;2023-08-07T05:28:28;99801.94;;;20.46;66.01
60258;BME280;46115;44.484;11.314;2023-08-07T05:32:31;99803.75;;;20.63;60.88
60258;BME280;46115;44.484;11.314;2023-08-07T05:36:34;99800.25;;;21.14;57.75
60258;BME280;46115;44.484;11.314;2023-08-07T05:40:36;99820.56;;;21.35;54.31
60258;BME280;46115;44.484;11.314;2023-08-07T05:44:40;99820.22;;;21.30;53.46
60258;BME280;46115;44.484;11.314;2023-08-07T05:48:42;99822.69;;;21.91;52.12
60258;BME280;46115;44.484;11.314;2023-08-07T05:52:45;99830.69;;;21.41;51.41
60258;BME280;46115;44.484;11.314;2023-08-07T05:56:48;99834.88;;;22.12;48.40
60258;BME280;46115;44.484;11.314;2023-08-07T06:00:51;99821.16;;;21.89;46.63
60258;BME280;46115;44.484;11.314;2023-08-07T06:04:54;99850.78;;;22.63;46.78
60258;BME280;46115;44.484;11.314;2023-08-07T06:08:56;99847.59;;;22.84;47.13
60258;BME280;46115;44.484;11.314;2023-08-07T06:12:59;99846.91;;;22.74;45.22
60258;BME280;46115;44.484;11.314;2023-08-07T06:17:04;99856.66;;;22.75;43.48
60258;BME280;46115;44.484;11.314;2023-08-07T06:21:06;99852.97;;;22.76;44.14
60258;BME280;46115;44.484;11.314;2023-08-07T06:25:11;99857.34;;;23.18;44.56
60258;BME280;46115;44.484;11.314;2023-08-07T06:29:14;99857.34;;;23.34;44.61
60258;BME280;46115;44.484;11.314;2023-08-07T06:33:18;99861.16;;;23.56;45.12
60258;BME280;46115;44.484;11.314;2023-08-07T06:37:20;99866.38;;;23.57;44.14
60258;BME280;46115;44.484;11.314;2023-08-07T06:41:23;99860.78;;;23.75;43.81
60258;BME280;46115;44.484;11.314;2023-08-07T06:45:25;99861.41;;;23.85;43.33
60258;BME280;46115;44.484;11.314;2023-08-07T06:49:29;99867.38;;;24.43;42.24
60258;BME280;46115;44.484;11.314;2023-08-07T06:53:32;99864.34;;;24.69;41.07
60258;BME280;46115;44.484;11.314;2023-08-07T06:57:35;99864.75;;;24.57;39.90
60258;BME280;46115;44.484;11.314;2023-08-07T07:01:37;99861.22;;;25.03;39.30
60258;BME280;46115;44.484;11.314;2023-08-07T07:05:41;99865.59;;;24.58;39.40
60258;BME280;46115;44.484;11.314;2023-08-07T07:09:44;99861.75;;;25.95;39.29
60258;BME280;46115;44.484;11.314;2023-08-07T07:13:47;99872.81;;;25.26;37.91
60258;BME280;46115;44.484;11.314;2023-08-07T07:17:50;99880.59;;;26.18;37.31
60258;BME280;46115;44.484;11.314;2023-08-07T07:21:54;99867.63;;;26.13;37.34
60258;BME280;46115;44.484;11.314;2023-08-07T07:25:56;99878.88;;;26.89;36.40
60258;BME280;46115;44.484;11.314;2023-08-07T07:29:59;99880.22;;;27.21;34.16
60258;BME280;46115;44.484;11.314;2023-08-07T07:34:02;99881.84;;;27.15;34.78
60258;BME280;46115;44.484;11.314;2023-08-07T07:38:06;99870.94;;;28.06;32.00
60258;BME280;46115;44.484;11.314;2023-08-07T07:42:08;99881.84;;;28.12;31.84
60258;BME280;46115;44.484;11.314;2023-08-07T07:46:11;99886.19;;;28.54;30.55
60258;BME280;46115;44.484;11.314;2023-08-07T07:50:13;99882.09;;;28.85;29.22
60258;BME280;46115;44.484;11.314;2023-08-07T07:54:17;99899.00;;;28.80;30.07
60258;BME280;46115;44.484;11.314;2023-08-07T07:58:20;99899.63;;;29.75;28.98
60258;BME280;46115;44.484;11.314;2023-08-07T08:02:23;99910.75;;;29.67;27.95
60258;BME280;46115;44.484;11.314;2023-08-07T08:06:25;99909.66;;;29.81;28.77
60258;BME280;46115;44.484;11.314;2023-08-07T08:10:29;99913.47;;;29.73;28.90
60258;BME280;46115;44.484;11.314;2023-08-07T08:14:32;99914.34;;;29.61;27.43
60258;BME280;46115;44.484;11.314;2023-08-07T08:18:34;99911.19;;;29.64;26.51
60258;BME280;46115;44.484;11.314;2023-08-07T08:22:37;99913.16;;;30.21;27.87
60258;BME280;46115;44.484;11.314;2023-08-07T08:26:41;99914.22;;;30.14;26.98
60258;BME280;46115;44.484;11.314;2023-08-07T08:30:43;99923.31;;;30.90;26.13
60258;BME280;46115;44.484;11.314;2023-08-07T08:34:46;99910.91;;;29.98;26.12
60258;BME280;46115;44.484;11.314;2023-08-07T08:38:50;99906.59;;;29.58;26.46
60258;BME280;46115;44.484;11.314;2023-08-07T08:42:55;99919.69;;;30.52;26.96
60258;BME280;46115;44.484;11.314;2023-08-07T08:46:59;99918.88;;;31.21;26.35
60258;BME280;46115;44.484;11.314;2023-08-07T08:51:04;99923.72;;;31.44;24.56
60258;BME280;46115;44.484;11.314;2023-08-07T08:55:07;99932.47;;;31.77;25.38
60258;BME280;46115;44.484;11.314;2023-08-07T08:59:11;99926.34;;;31.57;24.90
60258;BME280;46115;44.484;11.314;2023-08-07T09:03:14;99939.66;;;32.33;24.42
60258;BME280;46115;44.484;11.314;2023-08-07T09:07:19;99948.13;;;32.07;24.48
60258;BME280;46115;44.484;11.314;2023-08-07T09:11:22;99936.50;;;32.48;23.89
60258;BME280;46115;44.484;11.314;2023-08-07T09:15:27;99930.56;;;32.51;23.56
60258;BME280;46115;44.484;11.314;2023-08-07T09:19:31;99939.69;;;31.90;23.69
60258;BME280;46115;44.484;11.314;2023-08-07T09:23:33;99944.00;;;31.54;23.89
60258;BME280;46115;44.484;11.314;2023-08-07T09:27:37;99947.97;;;31.83;24.13
60258;BME280;46115;44.484;11.314;2023-08-07T09:31:43;99945.50;;;32.00;23.53
60258;BME280;46115;44.484;11.314;2023-08-07T09:35:46;99940.19;;;31.37;23.42
60258;BME280;46115;44.484;11.314;2023-08-07T09:39:49;99942.19;;;31.48;24.39
60258;BME280;46115;44.484;11.314;2023-08-07T09:43:51;99939.97;;;31.39;22.96
60258;BME280;46115;44.484;11.314;2023-08-07T09:47:59;99939.31;;;31.12;23.28
60258;BME280;46115;44.484;11.314;2023-08-07T09:52:06;99939.25;;;31.25;23.60
60258;BME280;46115;44.484;11.314;2023-08-07T09:56:09;99943.69;;;31.19;23.76
60258;BME280;46115;44.484;11.314;2023-08-07T10:00:12;99937.97;;;30.96;23.82
60258;BME280;46115;44.484;11.314;2023-08-07T10:04:18;99936.22;;;31.01;24.60
60258;BME280;46115;44.484;11.314;2023-08-07T10:08:22;99927.41;;;30.68;25.74
60258;BME280;46115;44.484;11.314;2023-08-07T10:12:25;99938.78;;;30.65;25.34
60258;BME280;46115;44.484;11.314;2023-08-07T10:16:29;99934.16;;;30.59;24.84
60258;BME280;46115;44.484;11.314;2023-08-07T10:20:33;99935.97;;;30.33;25.06
60258;BME280;46115;44.484;11.314;2023-08-07T10:24:40;99923.75;;;30.42;25.34
60258;BME280;46115;44.484;11.314;2023-08-07T10:28:45;99911.31;;;30.08;25.41
60258;BME280;46115;44.484;11.314;2023-08-07T10:32:48;99935.78;;;30.28;26.56
60258;BME280;46115;44.484;11.314;2023-08-07T10:36:53;99934.97;;;30.15;25.86
60258;BME280;46115;44.484;11.314;2023-08-07T10:40:59;99937.16;;;29.73;24.79
60258;BME280;46115;44.484;11.314;2023-08-07T10:45:05;99936.94;;;29.41;23.64
60258;BME280;46115;44.484;11.314;2023-08-07T10:49:08;99934.44;;;29.46;25.29
60258;BME280;46115;44.484;11.314;2023-08-07T10:53:19;99931.09;;;29.44;25.00
60258;BME280;46115;44.484;11.314;2023-08-07T10:57:22;99933.59;;;29.33;24.50
60258;BME280;46115;44.484;11.314;2023-08-07T11:01:39;99922.69;;;29.06;24.84
60258;BME280;46115;44.484;11.314;2023-08-07T11:05:42;99933.19;;;29.16;26.62
60258;BME280;46115;44.484;11.314;2023-08-07T11:09:46;99932.53;;;29.14;26.36
60258;BME280;46115;44.484;11.314;2023-08-07T11:13:48;99931.91;;;29.12;26.06
60258;BME280;46115;44.484;11.314;2023-08-07T11:17:52;99928.25;;;28.65;25.57
60258;BME280;46115;44.484;11.314;2023-08-07T11:21:55;99914.13;;;28.29;25.50
60258;BME280;46115;44.484;11.314;2023-08-07T11:25:59;99916.34;;;28.73;26.55
60258;BME280;46115;44.484;11.314;2023-08-07T11:30:02;99908.59;;;28.63;26.35
60258;BME280;46115;44.484;11.314;2023-08-07T11:34:06;99910.06;;;28.66;27.12
60258;BME280;46115;44.484;11.314;2023-08-07T11:38:08;99914.25;;;28.68;25.56
60258;BME280;46115;44.484;11.314;2023-08-07T11:42:13;99912.34;;;28.62;25.25
60258;BME280;46115;44.484;11.314;2023-08-07T11:46:15;99910.03;;;28.59;25.47
60258;BME280;46115;44.484;11.314;2023-08-07T11:50:18;99913.69;;;28.25;24.90
60258;BME280;46115;44.484;11.314;2023-08-07T11:54:21;99911.59;;;28.27;24.76
60258;BME280;46115;44.484;11.314;2023-08-07T11:58:27;99902.63;;;28.26;24.86
60258;BME280;46115;44.484;11.314;2023-08-07T12:02:30;99910.84;;;28.46;25.24
60258;BME280;46115;44.484;11.314;2023-08-07T12:06:32;99921.66;;;28.33;25.23
60258;BME280;46115;44.484;11.314;2023-08-07T12:10:36;99915.84;;;28.43;25.94
60258;BME280;46115;44.484;11.314;2023-08-07T12:14:40;99906.25;;;28.53;26.53
60258;BME280;46115;44.484;11.314;2023-08-07T12:18:44;99916.88;;;28.42;25.09
60258;BME280;46115;44.484;11.314;2023-08-07T12:22:47;99923.13;;;28.29;26.23
60258;BME280;46115;44.484;11.314;2023-08-07T12:26:50;99919.97;;;27.91;22.83
60258;BME280;46115;44.484;11.314;2023-08-07T12:30:54;99912.59;;;27.78;23.13
60258;BME280;46115;44.484;11.314;2023-08-07T12:34:57;99920.94;;;28.11;26.34
60258;BME280;46115;44.484;11.314;2023-08-07T12:38:59;99915.72;;;28.16;25.57
60258;BME280;46115;44.484;11.314;2023-08-07T12:43:02;99910.69;;;28.13;24.56
60258;BME280;46115;44.484;11.314;2023-08-07T12:47:06;99912.56;;;28.13;25.62
60258;BME280;46115;44.484;11.314;2023-08-07T12:51:09;99913.25;;;27.80;23.53
60258;BME280;46115;44.484;11.314;2023-08-07T12:55:11;99905.34;;;27.92;23.23
60258;BME280;46115;44.484;11.314;2023-08-07T12:59:14;99917.66;;;27.88;23.58
60258;BME280;46115;44.484;11.314;2023-08-07T13:03:18;99908.88;;;27.86;21.85
60258;BME280;46115;44.484;11.314;2023-08-07T13:07:20;99916.88;;;28.01;22.86
60258;BME280;46115;44.484;11.314;2023-08-07T13:11:23;99910.97;;;27.84;23.49
60258;BME280;46115;44.484;11.314;2023-08-07T13:15:25;99914.50;;;27.84;23.62
60258;BME280;46115;44.484;11.314;2023-08-07T13:19:29;99914.53;;;27.91;23.48
60258;BME280;46115;44.484;11.314;2023-08-07T13:23:31;99921.19;;;27.82;23.68
60258;BME280;46115;44.484;11.314;2023-08-07T13:27:34;99905.34;;;27.92;23.80
60258;BME280;46115;44.484;11.314;2023-08-07T13:31:37;99909.69;;;27.80;23.57
60258;BME280;46115;44.484;11.314;2023-08-07T13:35:43;99913.47;;;27.85;25.25
60258;BME280;46115;44.484;11.314;2023-08-07T13:39:46;99911.63;;;27.92;22.99
60258;BME280;46115;44.484;11.314;2023-08-07T13:43:50;99908.28;;;27.90;25.59
60258;BME280;46115;44.484;11.314;2023-08-07T13:47:52;99901.81;;;27.98;25.21
60258;BME280;46115;44.484;11.314;2023-08-07T13:51:56;99901.09;;;27.76;24.45
60258;BME280;46115;44.484;11.314;2023-08-07T13:55:59;99901.44;;;27.67;24.19
60258;BME280;46115;44.484;11.314;2023-08-07T14:00:02;99896.09;;;27.80;24.54
60258;BME280;46115;44.484;11.314;2023-08-07T14:04:06;99913.66;;;27.56;24.04
60258;BME280;46115;44.484;11.314;2023-08-07T14:08:10;99902.25;;;28.02;24.87
60258;BME280;46115;44.484;11.314;2023-08-07T14:12:12;99909.50;;;27.88;25.01
60258;BME280;46115;44.484;11.314;2023-08-07T14:16:15;99916.16;;;27.79;24.40
60258;BME280;46115;44.484;11.314;2023-08-07T14:20:18;99922.97;;;27.68;25.07
60258;BME280;46115;44.484;11.314;2023-08-07T14:24:22;99924.81;;;27.95;24.56
60258;BME280;46115;44.484;11.314;2023-08-07T14:28:24;99918.22;;;27.77;25.75
60258;BME280;46115;44.484;11.314;2023-08-07T14:32:28;99921.25;;;27.95;25.87
60258;BME280;46115;44.484;11.314;2023-08-07T14:36:31;99933.75;;;27.89;25.34
60258;BME280;46115;44.484;11.314;2023-08-07T14:40:35;99938.28;;;27.76;24.02
60258;BME280;46115;44.484;11.314;2023-08-07T14:44:39;99940.50;;;27.65;24.72
60258;BME280;46115;44.484;11.314;2023-08-07T14:48:42;99942.19;;;27.73;24.69
60258;BME280;46115;44.484;11.314;2023-08-07T14:52:45;99942.41;;;27.72;25.44
60258;BME280;46115;44.484;11.314;2023-08-07T14:56:49;99945.22;;;27.85;25.56
60258;BME280;46115;44.484;11.314;2023-08-07T15:00:54;99945.03;;;27.86;24.44
60258;BME280;46115;44.484;11.314;2023-08-07T15:04:57;99946.03;;;27.79;24.91
60258;BME280;46115;44.484;11.314;2023-08-07T15:08:59;99941.50;;;27.92;24.04
60258;BME280;46115;44.484;11.314;2023-08-07T15:13:03;99947.19;;;27.70;24.09
60258;BME280;46115;44.484;11.314;2023-08-07T15:17:05;99948.09;;;27.77;25.42
60258;BME280;46115;44.484;11.314;2023-08-07T15:21:08;99938.50;;;27.53;24.91
60258;BME280;46115;44.484;11.314;2023-08-07T15:25:11;99941.94;;;27.61;26.02
60258;BME280;46115;44.484;11.314;2023-08-07T15:29:15;99948.94;;;27.77;24.77
60258;BME280;46115;44.484;11.314;2023-08-07T15:33:18;99951.59;;;27.43;24.77
60258;BME280;46115;44.484;11.314;2023-08-07T15:37:21;99946.91;;;27.37;22.74
60258;BME280;46115;44.484;11.314;2023-08-07T15:41:23;99940.84;;;27.34;23.44
60258;BME280;46115;44.484;11.314;2023-08-07T15:45:27;99947.28;;;27.55;23.30
60258;BME280;46115;44.484;11.314;2023-08-07T15:49:31;99951.00;;;27.47;23.86
60258;BME280;46115;44.484;11.314;2023-08-07T15:53:33;99946.72;;;27.38;23.97
60258;BME280;46115;44.484;11.314;2023-08-07T15:57:36;99953.47;;;27.70;22.15
60258;BME280;46115;44.484;11.314;2023-08-07T16:01:39;99959.53;;;27.44;23.28
60258;BME280;46115;44.484;11.314;2023-08-07T16:05:43;99947.75;;;27.37;22.84
60258;BME280;46115;44.484;11.314;2023-08-07T16:09:46;99956.47;;;27.54;23.59
60258;BME280;46115;44.484;11.314;2023-08-07T16:13:48;99947.09;;;27.56;23.11
60258;BME280;46115;44.484;11.314;2023-08-07T16:17:54;99951.00;;;27.26;23.37
60258;BME280;46115;44.484;11.314;2023-08-07T16:21:58;99943.16;;;27.10;23.96
60258;BME280;46115;44.484;11.314;2023-08-07T16:26:01;99948.03;;;27.21;24.89
60258;BME280;46115;44.484;11.314;2023-08-07T16:30:05;99959.81;;;27.07;25.16
60258;BME280;46115;44.484;11.314;2023-08-07T16:34:09;99958.09;;;27.27;25.39
60258;BME280;46115;44.484;11.314;2023-08-07T16:38:12;99965.59;;;27.03;25.16
60258;BME280;46115;44.484;11.314;2023-08-07T16:42:14;99956.53;;;27.11;24.47
60258;BME280;46115;44.484;11.314;2023-08-07T16:46:17;99961.50;;;27.08;24.59
60258;BME280;46115;44.484;11.314;2023-08-07T16:50:22;99962.50;;;27.28;25.11
60258;BME280;46115;44.484;11.314;2023-08-07T16:54:27;99970.66;;;27.07;26.07
60258;BME280;46115;44.484;11.314;2023-08-07T16:58:30;99972.88;;;26.82;26.44
60258;BME280;46115;44.484;11.314;2023-08-07T17:02:32;99973.13;;;26.87;26.66
60258;BME280;46115;44.484;11.314;2023-08-07T17:06:36;99984.59;;;27.03;25.98
60258;BME280;46115;44.484;11.314;2023-08-07T17:10:39;99984.28;;;27.13;25.47
60258;BME280;46115;44.484;11.314;2023-08-07T17:14:41;99988.44;;;26.73;27.05
60258;BME280;46115;44.484;11.314;2023-08-07T17:18:44;99985.84;;;26.50;27.08
60258;BME280;46115;44.484;11.314;2023-08-07T17:22:47;99997.03;;;26.77;27.58
60258;BME280;46115;44.484;11.314;2023-08-07T17:26:50;100004.16;;;26.99;26.46
60258;BME280;46115;44.484;11.314;2023-08-07T17:30:52;99994.41;;;26.68;26.07
60258;BME280;46115;44.484;11.314;2023-08-07T17:34:55;99994.59;;;26.67;27.72
60258;BME280;46115;44.484;11.314;2023-08-07T17:39:00;100003.22;;;26.56;28.74
60258;BME280;46115;44.484;11.314;2023-08-07T17:43:03;100007.22;;;26.75;26.96
60258;BME280;46115;44.484;11.314;2023-08-07T17:47:05;99991.19;;;26.44;29.23
60258;BME280;46115;44.484;11.314;2023-08-07T17:51:08;99994.72;;;25.62;32.64
60258;BME280;46115;44.484;11.314;2023-08-07T17:55:12;100001.97;;;25.70;31.98
60258;BME280;46115;44.484;11.314;2023-08-07T17:59:16;100002.78;;;25.33;33.90
60258;BME280;46115;44.484;11.314;2023-08-07T18:03:18;99996.28;;;25.19;31.73
60258;BME280;46115;44.484;11.314;2023-08-07T18:07:21;100007.28;;;25.17;33.42
60258;BME280;46115;44.484;11.314;2023-08-07T18:11:25;100003.38;;;24.89;33.40
60258;BME280;46115;44.484;11.314;2023-08-07T18:15:27;100021.63;;;24.64;32.89
60258;BME280;46115;44.484;11.314;2023-08-07T18:19:30;100027.81;;;24.73;33.84
60258;BME280;46115;44.484;11.314;2023-08-07T18:23:32;100027.13;;;24.40;34.80
60258;BME280;46115;44.484;11.314;2023-08-07T18:27:36;100035.19;;;24.48;33.49
60258;BME280;46115;44.484;11.314;2023-08-07T18:31:39;100044.56;;;24.13;34.98
60258;BME280;46115;44.484;11.314;2023-08-07T18:35:41;100053.38;;;23.90;36.38
60258;BME280;46115;44.484;11.314;2023-08-07T18:39:44;100054.06;;;23.68;36.90
60258;BME280;46115;44.484;11.314;2023-08-07T18:43:47;100063.16;;;23.83;36.21
60258;BME280;46115;44.484;11.314;2023-08-07T18:47:50;100063.13;;;23.51;35.96
60258;BME280;46115;44.484;11.314;2023-08-07T18:51:53;100073.25;;;23.41;35.66
60258;BME280;46115;44.484;11.314;2023-08-07T18:55:55;100073.25;;;23.49;35.74
60258;BME280;46115;44.484;11.314;2023-08-07T18:59:59;100069.81;;;22.98;37.15
60258;BME280;46115;44.484;11.314;2023-08-07T19:04:01;100074.09;;;23.33;36.58
60258;BME280;46115;44.484;11.314;2023-08-07T19:08:05;100087.06;;;23.29;36.96
60258;BME280;46115;44.484;11.314;2023-08-07T19:12:08;100093.81;;;23.42;37.01
60258;BME280;46115;44.484;11.314;2023-08-07T19:16:12;100099.88;;;23.36;40.08
60258;BME280;46115;44.484;11.314;2023-08-07T22:06:08;100230.50;;;18.89;49.18
60258;BME280;46115;44.484;11.314;2023-08-07T22:10:11;100237.13;;;19.25;48.60
60258;BME280;46115;44.484;11.314;2023-08-07T22:14:14;100237.28;;;18.93;48.66
60258;BME280;46115;44.484;11.314;2023-08-07T22:18:17;100238.50;;;18.80;48.59
60258;BME280;46115;44.484;11.314;2023-08-07T22:22:21;100240.22;;;18.90;48.30
60258;BME280;46115;44.484;11.314;2023-08-07T22:26:23;100237.69;;;18.89;48.04
60258;BME280;46115;44.484;11.314;2023-08-07T22:30:26;100238.69;;;18.97;47.48
60258;BME280;46115;44.484;11.314;2023-08-07T22:34:29;100231.50;;;18.98;47.67
60258;BME280;46115;44.484;11.314;2023-08-07T22:38:34;100235.44;;;18.94;46.53
60258;BME280;46115;44.484;11.314;2023-08-07T22:42:36;100234.31;;;18.96;47.24
60258;BME280;46115;44.484;11.314;2023-08-07T22:46:39;100232.47;;;18.87;48.01
60258;BME280;46115;44.484;11.314;2023-08-07T22:50:41;100229.09;;;18.95;47.58
60258;BME280;46115;44.484;11.314;2023-08-07T22:54:45;100226.38;;;18.85;47.61
60258;BME280;46115;44.484;11.314;2023-08-07T22:58:48;100220.09;;;18.45;49.15
60258;BME280;46115;44.484;11.314;2023-08-07T23:02:53;100218.03;;;18.37;49.30
60258;BME280;46115;44.484;11.314;2023-08-07T23:06:56;100220.97;;;18.55;49.04
60258;BME280;46115;44.484;11.314;2023-08-07T23:10:59;100221.25;;;18.31;49.29
60258;BME280;46115;44.484;11.314;2023-08-07T23:15:02;100217.88;;;17.97;50.02
60258;BME280;46115;44.484;11.314;2023-08-07T23:19:04;100231.22;;;18.29;49.44
60258;BME280;46115;44.484;11.314;2023-08-07T23:23:07;100222.84;;;18.01;49.76
60258;BME280;46115;44.484;11.314;2023-08-07T23:27:11;100219.81;;;18.27;48.66
60258;BME280;46115;44.484;11.314;2023-08-07T23:31:14;100233.38;;;18.56;47.67
60258;BME280;46115;44.484;11.314;2023-08-07T23:35:16;100235.84;;;18.27;49.64
60258;BME280;46115;44.484;11.314;2023-08-07T23:39:19;100240.56;;;18.14;49.70
60258;BME280;46115;44.484;11.314;2023-08-07T23:43:23;100233.34;;;17.93;50.09
60258;BME280;46115;44.484;11.314;2023-08-07T23:47:25;100242.94;;;17.96;49.98
60258;BME280;46115;44.484;11.314;2023-08-07T23:51:28;100253.88;;;17.93;50.67
60258;BME280;46115;44.484;11.314;2023-08-07T23:55:30;100248.84;;;17.79;50.27